Ault Field, Washington
Current Conditions -  °F | °C
As of 10:56 AM on Saturday 25 Oct 2014 (Local Time) from KNUW Reporting Station
Broken Clouds Broken Clouds  
Wind Chill: 59°   Ceiling: 11000
Heat Index: 59°   Visibility: 10mi
Dew Point: 51°   Wind: 22mph
Humidity: 75%   Direction: 120°ESE
Pressure: 29.44"   Gusts: 31mph
Location:  48.3182°N, 122.634°W
Report Text: KNUW 251756Z 12019G27KT 10SM SCT060 BKN110 BKN200 15/11 A2944 RMK AO2 PK WND 13028/1746 RAE47 SLP972 P0000 60000 T01500106 10150 20106 58026 $
Loading
Personal Weather Stations






























Interactive Weather Map
Tropical Storm Tracking
New forecast layout! Learn more

10-Day Weather Forecast

Advertisements
Track Severe Weather on mobile